Time;durP1;ratioP1;P1;durP2;ratioP2;P2;SDS_P1;SDS_P2;PMS_P1;PMS_P2;Temp;Humidity;BMP_temperature;BMP_pressure;BME280_temperature;BME280_humidity;BME280_pressure;Samples;Min_cycle;Max_cycle;Signal;HPM_P1;HPM_P2
2024/02/20 00:01:34;;;;;;;15.40;11.45;;;;;;;6.09;100.00;130800.22;5031496;28;20030;-70
2024/02/20 00:03:59;;;;;;;19.25;12.90;;;;;;;5.57;100.00;130942.75;5031801;28;20029;-70
2024/02/20 00:06:25;;;;;;;19.40;12.65;;;;;;;6.04;100.00;131265.22;5031583;28;20482;-70
2024/02/20 00:08:50;;;;;;;15.18;11.77;;;;;;;6.02;100.00;131423.75;5030823;28;20038;-71
2024/02/20 00:11:16;;;;;;;17.40;12.18;;;;;;;6.05;100.00;131272.53;5033605;28;20018;-70
2024/02/20 00:13:41;;;;;;;17.13;11.77;;;;;;;5.45;100.00;131262.16;5034505;28;20103;-70
2024/02/20 00:16:06;;;;;;;16.08;11.57;;;;;;;6.21;100.00;131551.22;5031602;28;20112;-70
2024/02/20 00:18:32;;;;;;;16.17;11.77;;;;;;;5.74;100.00;131560.34;5031438;28;20131;-71
2024/02/20 00:20:58;;;;;;;16.13;11.65;;;;;;;6.14;100.00;131726.69;5031051;28;20404;-73
2024/02/20 00:23:24;;;;;;;15.80;11.73;;;;;;;6.05;100.00;131780.59;5031444;28;20393;-71
2024/02/20 00:25:50;;;;;;;16.75;11.60;;;;;;;6.11;100.00;131896.88;5046916;28;20036;-72
2024/02/20 00:28:16;;;;;;;14.77;10.80;;;;;;;5.86;100.00;131972.69;5031712;28;20112;-71
2024/02/20 00:30:42;;;;;;;16.83;12.13;;;;;;;6.32;100.00;132202.16;5030233;28;20031;-70
2024/02/20 00:33:08;;;;;;;15.48;11.50;;;;;;;5.47;100.00;132018.41;5028787;28;20108;-71
2024/02/20 00:35:34;;;;;;;16.52;11.88;;;;;;;6.08;100.00;132225.25;5029364;28;20029;-70
2024/02/20 00:37:59;;;;;;;15.85;12.52;;;;;;;5.93;100.00;132307.56;5031371;28;20036;-71
2024/02/20 00:40:25;;;;;;;16.77;12.63;;;;;;;6.00;100.00;132467.19;5030500;28;20044;-70
2024/02/20 00:42:50;;;;;;;15.70;12.15;;;;;;;6.02;100.00;132566.94;5030934;28;20033;-71
2024/02/20 00:45:16;;;;;;;19.15;13.18;;;;;;;6.12;100.00;132702.72;5045807;28;20660;-71
2024/02/20 00:47:42;;;;;;;17.33;13.13;;;;;;;6.07;100.00;132831.66;5029667;28;20091;-70
2024/02/20 00:50:08;;;;;;;18.23;12.63;;;;;;;6.03;100.00;132937.34;5030894;28;20041;-70
2024/02/20 00:52:34;;;;;;;16.58;13.40;;;;;;;5.78;100.00;133125.81;5030786;28;20025;-71
2024/02/20 00:55:00;;;;;;;19.55;13.40;;;;;;;5.25;100.00;133154.38;5029146;28;20496;-71
2024/02/20 00:57:26;;;;;;;17.50;13.07;;;;;;;6.23;100.00;133476.34;5030818;28;20041;-70
2024/02/20 00:59:52;;;;;;;19.23;14.05;;;;;;;5.13;100.00;133375.63;5030327;28;20105;-70
2024/02/20 01:02:18;;;;;;;18.13;13.32;;;;;;;6.34;100.00;133798.09;5030372;28;20159;-70
2024/02/20 01:04:43;;;;;;;17.50;13.93;;;;;;;6.36;100.00;133806.25;5030351;28;20544;-71
2024/02/20 01:07:10;;;;;;;19.02;13.55;;;;;;;6.43;100.00;133884.63;5029380;28;20041;-70
2024/02/20 01:09:36;;;;;;;20.08;13.85;;;;;;;6.19;100.00;133867.41;5029297;28;20022;-70
2024/02/20 01:12:01;;;;;;;17.67;13.18;;;;;;;6.11;100.00;133905.44;5030789;28;20025;-70
2024/02/20 01:14:28;;;;;;;20.40;13.43;;;;;;;5.88;100.00;133989.75;5030876;28;20100;-70
2024/02/20 01:16:53;;;;;;;21.05;13.88;;;;;;;6.33;100.00;134283.81;5029344;28;20480;-70
2024/02/20 01:19:19;;;;;;;17.40;13.27;;;;;;;6.45;100.00;134373.50;5029272;28;20029;-70
2024/02/20 01:21:45;;;;;;;16.70;12.98;;;;;;;5.73;100.00;134299.69;5030522;28;20030;-70
2024/02/20 01:24:10;;;;;;;17.10;11.95;;;;;;;6.18;100.00;134359.50;5030031;28;20037;-76
2024/02/20 01:26:36;;;;;;;15.52;12.00;;;;;;;6.14;100.00;134360.66;5030636;28;20060;-70
2024/02/20 01:29:01;;;;;;;14.93;12.45;;;;;;;5.58;100.00;134376.69;5045876;28;20106;-70
2024/02/20 01:31:27;;;;;;;16.80;12.80;;;;;;;5.93;100.00;134523.25;5030191;28;20120;-71
2024/02/20 01:33:53;;;;;;;15.38;12.35;;;;;;;6.39;100.00;134716.88;5029901;28;20026;-69
2024/02/20 01:36:19;;;;;;;14.73;11.80;;;;;;;5.92;100.00;134615.22;5030458;28;20072;-70
2024/02/20 01:38:46;;;;;;;15.85;12.55;;;;;;;5.97;100.00;134575.59;5029911;28;20484;-70
2024/02/20 01:41:11;;;;;;;14.73;12.30;;;;;;;6.00;100.00;134581.28;5028690;28;20025;-70
2024/02/20 01:43:37;;;;;;;17.83;13.23;;;;;;;6.10;100.00;134773.22;5030152;28;20037;-70
2024/02/20 01:46:04;;;;;;;18.70;13.02;;;;;;;5.74;100.00;134766.88;5027635;28;20406;-70
2024/02/20 01:48:30;;;;;;;17.45;12.38;;;;;;;5.03;100.00;134648.88;5029923;28;20120;-70
2024/02/20 01:50:56;;;;;;;18.02;12.82;;;;;;;4.82;100.00;134779.28;5028217;28;20159;-71
2024/02/20 01:53:22;;;;;;;20.40;13.48;;;;;;;6.15;100.00;135094.38;5030035;28;20416;-70
2024/02/20 01:55:48;;;;;;;18.02;13.05;;;;;;;5.57;100.00;135045.19;5028826;28;20472;-69
2024/02/20 01:58:14;;;;;;;16.02;12.20;;;;;;;6.24;100.00;135338.06;5029583;28;20040;-77
2024/02/20 02:00:40;;;;;;;17.60;12.98;;;;;;;5.59;100.00;135186.09;5029652;28;20034;-73
2024/02/20 02:03:05;;;;;;;17.83;13.02;;;;;;;6.17;100.00;135422.66;5029422;28;20033;-70
2024/02/20 02:05:31;;;;;;;17.33;12.38;;;;;;;6.39;100.00;135562.03;5030166;28;20029;-70
2024/02/20 02:07:59;;;;;;;14.77;11.50;;;;;;;5.45;100.00;135320.88;5029261;28;20468;-71
2024/02/20 02:10:25;;;;;;;16.15;12.20;;;;;;;5.92;100.00;135535.00;5029400;28;20044;-71
2024/02/20 02:12:50;;;;;;;15.70;12.15;;;;;;;6.16;100.00;135602.78;5029229;28;20091;-70
2024/02/20 02:15:16;;;;;;;15.80;12.18;;;;;;;5.66;100.00;135549.59;5029037;28;20033;-70
2024/02/20 02:17:42;;;;;;;15.60;12.20;;;;;;;6.40;100.00;135782.53;5029263;28;20037;-71
2024/02/20 02:20:08;;;;;;;18.70;14.05;;;;;;;6.13;100.00;135748.63;5029537;28;20116;-70
2024/02/20 02:22:34;;;;;;;18.45;13.43;;;;;;;5.63;100.00;135685.34;5028295;28;20076;-70
2024/02/20 02:25:00;;;;;;;15.18;13.10;;;;;;;6.24;100.00;135845.41;5029059;28;20065;-70
2024/02/20 02:27:26;;;;;;;17.23;12.57;;;;;;;5.68;100.00;135726.22;5029415;28;20041;-71
2024/02/20 02:29:52;;;;;;;16.63;11.93;;;;;;;6.14;100.00;135845.22;5029506;28;20038;-70
2024/02/20 02:32:17;;;;;;;15.80;11.55;;;;;;;5.62;100.00;135758.34;5027621;28;20029;-71
2024/02/20 02:34:44;;;;;;;16.85;12.52;;;;;;;5.46;100.00;135726.88;5028817;28;20040;-69
2024/02/20 02:37:10;;;;;;;14.70;12.32;;;;;;;6.07;100.00;135932.59;5028756;28;20033;-70
2024/02/20 02:39:35;;;;;;;17.40;11.60;;;;;;;5.58;100.00;135812.88;5029479;28;20048;-70
2024/02/20 02:42:01;;;;;;;15.00;10.88;;;;;;;5.39;100.00;135783.31;5028397;28;20026;-70
2024/02/20 02:44:26;;;;;;;15.15;11.93;;;;;;;6.01;100.00;135936.72;5029093;28;20539;-70
2024/02/20 02:46:51;;;;;;;16.38;12.52;;;;;;;5.86;100.00;135957.06;5029169;28;20025;-70
2024/02/20 02:49:17;;;;;;;16.88;12.60;;;;;;;5.42;100.00;135903.63;5027045;28;20090;-70
2024/02/20 02:51:42;;;;;;;16.20;12.13;;;;;;;5.71;100.00;136023.47;5028552;28;20043;-70
2024/02/20 02:54:08;;;;;;;16.88;12.40;;;;;;;5.38;100.00;135982.19;5029333;28;20504;-74
2024/02/20 02:56:33;;;;;;;16.33;12.40;;;;;;;6.28;100.00;136257.47;5027447;28;20087;-70
2024/02/20 02:58:59;;;;;;;17.00;12.55;;;;;;;6.39;100.00;136328.59;5028134;28;20040;-70
2024/02/20 03:01:28;;;;;;;16.58;12.38;;;;;;;6.04;100.00;136203.63;5029438;28;20037;-73
2024/02/20 03:03:54;;;;;;;16.67;11.60;;;;;;;6.07;100.00;136254.97;5045330;28;20056;-70
2024/02/20 03:06:19;;;;;;;18.88;12.32;;;;;;;5.46;100.00;136143.13;5028840;28;20126;-70
2024/02/20 03:08:48;;;;;;;17.33;12.43;;;;;;;5.03;100.00;136132.25;5027408;28;20087;-70
2024/02/20 03:11:14;;;;;;;16.23;11.65;;;;;;;6.04;100.00;136356.56;5028602;28;20025;-70
2024/02/20 03:13:41;;;;;;;14.52;11.60;;;;;;;5.96;100.00;136368.78;5028483;28;20034;-70
2024/02/20 03:16:06;;;;;;;18.60;12.75;;;;;;;5.39;100.00;136249.28;5028616;28;20026;-71
2024/02/20 03:18:36;;;;;;;19.63;13.63;;;;;;;5.36;100.00;136317.66;5026795;28;20416;-70
2024/02/20 03:21:02;;;;;;;18.30;13.60;;;;;;;5.96;100.00;136470.75;5043190;28;20040;-70
2024/02/20 03:23:29;;;;;;;19.88;14.13;;;;;;;5.46;100.00;136439.94;5028430;28;20029;-71
2024/02/20 03:25:55;;;;;;;19.42;14.25;;;;;;;6.07;100.00;136636.22;5028787;28;20099;-71
2024/02/20 03:28:21;;;;;;;17.00;12.80;;;;;;;5.58;100.00;136579.59;5026154;28;20030;-70
2024/02/20 03:30:47;;;;;;;15.90;12.25;;;;;;;5.33;100.00;136445.75;5028290;28;20041;-70
2024/02/20 03:33:12;;;;;;;17.25;12.40;;;;;;;5.88;100.00;136704.72;5027943;28;20033;-70
2024/02/20 03:35:38;;;;;;;17.98;13.10;;;;;;;5.97;100.00;136740.69;5028277;28;20033;-71
2024/02/20 03:38:05;;;;;;;18.85;12.95;;;;;;;6.00;100.00;136870.00;5027985;28;20480;-70
2024/02/20 03:40:30;;;;;;;17.50;12.77;;;;;;;5.49;100.00;136793.22;5026661;28;20033;-71
2024/02/20 03:42:56;;;;;;;15.68;12.45;;;;;;;5.77;100.00;136890.88;5027471;28;20506;-71
2024/02/20 03:45:22;;;;;;;16.45;11.98;;;;;;;5.76;100.00;136953.47;5028615;28;20032;-70
2024/02/20 03:47:48;;;;;;;15.70;11.95;;;;;;;6.03;100.00;136902.38;5028632;28;20033;-70
2024/02/20 03:50:13;;;;;;;16.98;13.38;;;;;;;5.32;100.00;136780.72;5028451;28;20056;-70
2024/02/20 03:52:38;;;;;;;17.58;12.98;;;;;;;5.61;100.00;136871.84;5028515;28;20112;-70
2024/02/20 03:55:05;;;;;;;17.25;13.10;;;;;;;5.60;100.00;136901.28;5027011;28;20053;-69
2024/02/20 03:57:30;;;;;;;15.98;12.55;;;;;;;5.43;100.00;136873.69;5027564;28;20067;-70
2024/02/20 03:59:56;;;;;;;16.90;12.93;;;;;;;5.65;100.00;136933.19;5026375;28;20033;-70
2024/02/20 04:02:22;;;;;;;20.25;13.13;;;;;;;5.15;100.00;136819.09;5028250;28;20033;-70
2024/02/20 04:04:48;;;;;;;16.67;12.75;;;;;;;5.42;100.00;136932.50;5025321;28;20025;-70
2024/02/20 04:07:14;;;;;;;17.20;12.63;;;;;;;5.19;100.00;136945.44;5028112;28;20037;-70
2024/02/20 04:09:41;;;;;;;18.80;12.80;;;;;;;5.35;100.00;137057.59;5026976;28;20381;-76
2024/02/20 04:12:07;;;;;;;17.70;12.40;;;;;;;5.92;100.00;137258.03;5026775;28;21451;-71
2024/02/20 04:14:32;;;;;;;18.63;13.10;;;;;;;5.94;100.00;137350.78;5029005;28;20048;-70
2024/02/20 04:16:58;;;;;;;18.55;12.55;;;;;;;5.89;100.00;137395.28;5030655;28;20776;-72
2024/02/20 04:19:23;;;;;;;21.58;12.52;;;;;;;6.30;100.00;137596.13;5031849;28;20095;-70
2024/02/20 04:21:49;;;;;;;19.08;13.55;;;;;;;5.47;100.00;137328.72;5029721;28;20435;-71
2024/02/20 04:24:14;;;;;;;18.63;13.95;;;;;;;5.91;100.00;137463.63;5029421;28;20029;-70
2024/02/20 04:26:39;;;;;;;22.40;14.60;;;;;;;5.65;100.00;137437.72;5029592;28;20029;-70
2024/02/20 04:29:06;;;;;;;21.90;15.68;;;;;;;5.00;100.00;137282.28;5029789;28;20412;-69
2024/02/20 04:31:32;;;;;;;21.98;15.38;;;;;;;5.63;100.00;137470.16;5029945;28;20037;-72
2024/02/20 04:33:57;;;;;;;21.50;14.10;;;;;;;5.58;100.00;137555.44;5030120;28;20393;-68
2024/02/20 04:36:23;;;;;;;19.17;13.30;;;;;;;5.93;100.00;137705.38;5029470;28;20041;-68
2024/02/20 04:38:52;;;;;;;18.23;13.60;;;;;;;6.07;100.00;137760.78;5028315;28;20075;-74
2024/02/20 04:41:27;;;;;;;19.58;15.00;;;;;;;5.94;100.00;137789.31;5027713;28;20026;-71
2024/02/20 04:43:52;;;;;;;18.92;14.07;;;;;;;5.20;100.00;137700.34;5025807;28;20132;-67
2024/02/20 04:46:18;;;;;;;23.10;16.65;;;;;;;5.96;100.00;137926.56;5029126;28;20404;-67
2024/02/20 04:48:43;;;;;;;21.35;15.88;;;;;;;5.47;100.00;137876.50;5028030;28;20033;-69
2024/02/20 04:51:09;;;;;;;19.15;15.88;;;;;;;6.22;100.00;138119.56;5029748;28;20121;-74
2024/02/20 04:53:34;;;;;;;19.77;15.57;;;;;;;5.65;100.00;138034.13;5028339;28;20029;-68
2024/02/20 04:56:00;;;;;;;17.70;13.27;;;;;;;5.76;100.00;138087.75;5028781;28;20068;-69
2024/02/20 04:58:26;;;;;;;19.33;13.55;;;;;;;5.44;100.00;138064.34;5027957;28;20037;-68
2024/02/20 05:00:51;;;;;;;17.73;13.05;;;;;;;5.18;100.00;138132.41;5029180;28;20025;-68
2024/02/20 05:03:17;;;;;;;19.02;14.65;;;;;;;5.07;100.00;138155.16;5027893;28;20532;-68
2024/02/20 05:05:42;;;;;;;21.23;15.00;;;;;;;5.77;100.00;138438.19;5028427;28;20029;-69
2024/02/20 05:08:07;;;;;;;19.15;14.90;;;;;;;5.03;100.00;138375.03;5027153;28;20044;-70
2024/02/20 05:10:33;;;;;;;20.80;15.75;;;;;;;5.81;100.00;138622.06;5027339;28;20511;-69
2024/02/20 05:12:58;;;;;;;20.20;14.93;;;;;;;5.95;100.00;138776.03;5026411;28;20040;-69
2024/02/20 05:15:24;;;;;;;25.15;16.88;;;;;;;5.95;100.00;138834.72;5028007;28;20586;-68
2024/02/20 05:17:49;;;;;;;23.10;16.13;;;;;;;5.25;100.00;138710.47;5029004;28;20039;-69
2024/02/20 05:20:15;;;;;;;25.45;18.55;;;;;;;5.18;100.00;138723.34;5028304;28;20405;-70
2024/02/20 05:22:40;;;;;;;22.17;16.90;;;;;;;4.93;100.00;138671.41;5028314;28;20040;-73
2024/02/20 05:25:06;;;;;;;23.52;17.20;;;;;;;5.97;100.00;138942.59;5028618;28;20404;-69
2024/02/20 05:27:32;;;;;;;21.73;15.65;;;;;;;5.17;100.00;138777.03;5028333;28;20049;-69
2024/02/20 05:29:57;;;;;;;18.60;14.90;;;;;;;5.32;100.00;138867.00;5027643;28;20030;-68
2024/02/20 05:32:23;;;;;;;20.63;15.45;;;;;;;5.40;100.00;138938.06;5032595;28;20107;-71
2024/02/20 05:34:48;;;;;;;19.52;14.88;;;;;;;5.96;100.00;139090.75;5029204;28;20424;-70
2024/02/20 05:37:14;;;;;;;20.58;16.05;;;;;;;5.56;100.00;139018.84;5028426;28;20044;-69
2024/02/20 05:39:39;;;;;;;22.95;15.80;;;;;;;5.78;100.00;139106.06;5028420;28;20095;-68
2024/02/20 05:42:05;;;;;;;24.23;17.92;;;;;;;6.01;100.00;139203.34;5026622;28;20181;-71
2024/02/20 05:44:31;;;;;;;26.85;19.70;;;;;;;6.00;100.00;139252.03;5028259;28;20029;-70
2024/02/20 05:46:56;;;;;;;25.70;17.92;;;;;;;6.29;100.00;139365.97;5027721;28;20529;-68
2024/02/20 05:49:21;;;;;;;21.65;16.00;;;;;;;5.93;100.00;139342.75;5027105;28;20025;-68
2024/02/20 05:51:48;;;;;;;19.88;14.82;;;;;;;5.28;100.00;139238.50;5031314;28;20032;-69
2024/02/20 05:54:14;;;;;;;21.95;14.85;;;;;;;5.79;100.00;139371.06;5028443;28;20048;-70
2024/02/20 05:56:41;;;;;;;19.52;15.07;;;;;;;5.82;100.00;139506.78;5029350;28;20117;-69
2024/02/20 05:59:06;;;;;;;21.67;15.25;;;;;;;5.31;100.00;139458.41;5029912;28;20080;-69
2024/02/20 06:01:32;;;;;;;19.23;14.57;;;;;;;6.06;100.00;139717.75;5027082;28;20026;-69
2024/02/20 06:04:00;;;;;;;21.13;15.40;;;;;;;5.34;100.00;139604.44;5029105;28;20087;-68
2024/02/20 06:06:25;;;;;;;20.23;14.57;;;;;;;5.29;100.00;139656.22;5027075;28;20081;-69
2024/02/20 06:08:51;;;;;;;19.13;13.77;;;;;;;5.24;100.00;139686.59;5028822;28;20045;-69
2024/02/20 06:11:18;;;;;;;22.10;14.93;;;;;;;5.99;100.00;139919.34;5028555;28;20043;-68
2024/02/20 06:13:44;;;;;;;20.50;14.73;;;;;;;5.57;100.00;139875.25;5027453;28;20095;-69
2024/02/20 06:16:10;;;;;;;22.33;14.77;;;;;;;5.76;100.00;139946.75;5026371;28;20487;-68
2024/02/20 06:18:36;;;;;;;19.23;13.93;;;;;;;5.45;100.00;139915.88;5029699;28;20087;-68
2024/02/20 06:21:02;;;;;;;20.77;14.95;;;;;;;5.50;100.00;139992.56;5028047;28;20029;-72
2024/02/20 06:23:28;;;;;;;21.48;15.10;;;;;;;6.26;100.00;140223.13;5028373;28;20490;-68
2024/02/20 06:25:53;;;;;;;19.92;14.32;;;;;;;5.46;100.00;140054.50;5028491;28;20032;-68
2024/02/20 06:28:20;;;;;;;19.25;13.32;;;;;;;5.45;100.00;140072.53;5028910;28;20033;-69
2024/02/20 06:30:47;;;;;;;23.08;14.65;;;;;;;5.64;100.00;140144.25;5029602;28;20033;-68
2024/02/20 06:33:13;;;;;;;17.20;13.63;;;;;;;6.34;100.00;140295.63;5028261;28;20049;-69
2024/02/20 06:35:39;;;;;;;18.95;14.43;;;;;;;6.26;100.00;140325.25;5027642;28;20425;-68
2024/02/20 06:38:04;;;;;;;17.23;13.23;;;;;;;5.31;100.00;140094.41;5028150;28;20033;-69
2024/02/20 06:40:29;;;;;;;18.15;13.38;;;;;;;6.04;100.00;140321.56;5026230;28;20523;-68
2024/02/20 06:42:55;;;;;;;18.80;13.63;;;;;;;5.91;100.00;140307.53;5044306;28;20037;-69
2024/02/20 06:45:20;;;;;;;18.60;13.70;;;;;;;6.22;100.00;140417.91;5027452;28;20032;-72
2024/02/20 06:47:49;;;;;;;19.20;14.60;;;;;;;5.56;100.00;140286.00;5029074;28;20028;-69
2024/02/20 06:50:14;;;;;;;18.40;13.55;;;;;;;6.22;100.00;140462.47;5029032;28;20080;-69
2024/02/20 06:52:40;;;;;;;17.40;13.23;;;;;;;5.79;100.00;140419.44;5027447;28;20057;-70
2024/02/20 06:55:08;;;;;;;17.80;13.23;;;;;;;5.77;100.00;140423.56;5028192;28;20046;-70
2024/02/20 06:57:35;;;;;;;18.45;14.30;;;;;;;6.39;100.00;140537.25;5029176;28;20033;-69
2024/02/20 07:00:03;;;;;;;18.25;14.73;;;;;;;6.58;100.00;140665.13;5027594;28;20041;-68
2024/02/20 07:02:28;;;;;;;17.42;12.93;;;;;;;6.19;100.00;140571.63;5028100;28;20041;-68
2024/02/20 07:04:54;;;;;;;17.02;13.32;;;;;;;5.70;100.00;140479.81;5029067;28;20041;-67
2024/02/20 07:07:20;;;;;;;15.82;12.95;;;;;;;5.35;100.00;140371.53;5028277;28;20029;-69
2024/02/20 07:09:46;;;;;;;18.08;12.50;;;;;;;5.82;100.00;140541.38;5028054;28;20087;-69
2024/02/20 07:12:12;;;;;;;16.00;12.68;;;;;;;6.17;100.00;140654.88;5028860;28;20041;-69
2024/02/20 07:14:37;;;;;;;17.33;13.02;;;;;;;6.09;100.00;140661.47;5028199;28;20447;-69
2024/02/20 07:17:04;;;;;;;16.45;12.77;;;;;;;6.24;100.00;140736.69;5028136;28;20095;-69
2024/02/20 07:19:29;;;;;;;19.10;13.70;;;;;;;6.27;100.00;140775.59;5027421;28;20546;-69
2024/02/20 07:21:55;;;;;;;17.35;12.88;;;;;;;6.49;100.00;140858.41;5026953;28;20029;-68
2024/02/20 07:24:20;;;;;;;16.45;12.85;;;;;;;6.26;100.00;140816.63;5027101;28;20030;-68
2024/02/20 07:26:46;;;;;;;17.50;12.68;;;;;;;5.52;100.00;140639.88;5026050;28;20053;-68
2024/02/20 07:29:11;;;;;;;17.70;13.20;;;;;;;6.39;100.00;140864.16;5028258;28;20025;-68
2024/02/20 07:31:37;;;;;;;17.83;13.60;;;;;;;5.95;100.00;140780.06;5026058;28;20404;-69
2024/02/20 07:34:03;;;;;;;19.48;14.77;;;;;;;6.70;100.00;140977.19;5028427;28;20462;-68
2024/02/20 07:36:29;;;;;;;18.40;13.88;;;;;;;6.66;100.00;140933.28;5026478;28;20566;-68
2024/02/20 07:38:55;;;;;;;18.75;12.15;;;;;;;5.83;100.00;140760.59;5028344;28;20025;-73
2024/02/20 07:41:20;;;;;;;16.13;11.85;;;;;;;5.85;100.00;140753.81;5028689;28;20941;-68
2024/02/20 07:43:46;;;;;;;16.90;13.20;;;;;;;6.47;100.00;140895.88;5028168;28;20025;-68
2024/02/20 07:46:14;;;;;;;18.48;13.30;;;;;;;6.67;100.00;140944.53;5027489;28;20029;-68
2024/02/20 07:48:42;;;;;;;18.45;13.23;;;;;;;6.61;100.00;140927.75;5044518;28;20029;-69
2024/02/20 07:51:09;;;;;;;19.13;13.35;;;;;;;5.52;100.00;140639.88;5030025;28;20030;-67
2024/02/20 07:53:35;;;;;;;19.08;13.82;;;;;;;6.64;100.00;140915.75;5031667;28;20079;-67
2024/02/20 07:56:02;;;;;;;19.77;13.85;;;;;;;6.75;100.00;140940.50;5031873;28;20126;-68
2024/02/20 07:58:28;;;;;;;17.33;13.27;;;;;;;6.20;100.00;140794.72;5030633;28;20033;-70
2024/02/20 08:00:54;;;;;;;24.48;17.33;;;;;;;6.38;100.00;140820.94;5030027;28;20060;-71
2024/02/20 08:03:23;;;;;;;20.80;14.88;;;;;;;6.97;100.00;140935.25;5031529;28;20065;-69
2024/02/20 08:05:49;;;;;;;18.23;13.38;;;;;;;6.78;100.00;140784.03;5030252;28;20029;-71
2024/02/20 08:08:14;;;;;;;22.30;15.23;;;;;;;6.44;100.00;140727.88;5029905;28;20037;-68
2024/02/20 08:10:40;;;;;;;22.13;13.70;;;;;;;6.82;100.00;140752.63;5046782;28;20444;-72
2024/02/20 08:13:06;;;;;;;20.73;14.45;;;;;;;7.05;100.00;140707.59;5032124;28;20028;-67
2024/02/20 08:15:31;;;;;;;18.85;14.18;;;;;;;6.85;100.00;140623.09;5032071;28;20036;-67
2024/02/20 08:17:57;;;;;;;26.17;17.80;;;;;;;6.85;100.00;140582.22;5031357;28;20419;-68
2024/02/20 08:20:22;;;;;;;18.67;14.45;;;;;;;6.32;100.00;140408.34;5046799;28;20424;-72
2024/02/20 08:22:48;;;;;;;22.25;15.40;;;;;;;6.33;100.00;140388.91;5030225;28;20037;-68
2024/02/20 08:25:14;;;;;;;16.85;13.25;;;;;;;6.17;100.00;140307.72;5030780;28;20032;-69
2024/02/20 08:27:39;;;;;;;18.20;13.60;;;;;;;6.22;100.00;140290.25;5046897;28;20110;-68
2024/02/20 08:30:08;;;;;;;17.17;13.20;;;;;;;6.90;100.00;140434.19;5031341;28;20033;-71
2024/02/20 08:32:33;;;;;;;21.75;15.82;;;;;;;7.03;100.00;140424.19;5029526;28;20040;-70
2024/02/20 08:34:59;;;;;;;24.33;17.58;;;;;;;6.56;100.00;140281.13;5031191;28;20029;-71
2024/02/20 08:37:24;;;;;;;18.40;12.18;;;;;;;6.94;100.00;140351.63;5031106;28;20466;-67
2024/02/20 08:39:51;;;;;;;15.82;11.80;;;;;;;7.00;100.00;140304.44;5031028;28;20036;-67
2024/02/20 08:42:16;;;;;;;15.43;12.55;;;;;;;6.62;100.00;140161.09;5029096;28;20052;-69
2024/02/20 08:44:42;;;;;;;20.35;14.77;;;;;;;7.33;100.00;140277.69;5031384;28;20775;-70
2024/02/20 08:47:07;;;;;;;16.50;13.13;;;;;;;7.35;100.00;140215.91;5030822;28;20033;-69
2024/02/20 08:49:32;;;;;;;19.52;15.55;;;;;;;7.40;100.00;140164.94;5030747;28;20044;-72
2024/02/20 08:51:58;;;;;;;18.45;13.32;;;;;;;7.22;100.00;140026.69;5030029;28;21137;-68
2024/02/20 08:54:23;;;;;;;17.83;13.52;;;;;;;7.29;100.00;139983.00;5030672;28;20447;-70
2024/02/20 08:56:49;;;;;;;25.38;18.00;;;;;;;7.08;100.00;139897.78;5031077;28;20472;-69
2024/02/20 08:59:14;;;;;;;17.05;13.05;;;;;;;7.71;100.00;139976.97;5030724;28;20070;-71
2024/02/20 09:01:40;;;;;;;20.65;14.30;;;;;;;7.87;100.00;139914.81;5029964;28;20037;-71
2024/02/20 09:04:06;;;;;;;18.25;13.40;;;;;;;7.95;100.00;139822.38;5029096;28;20041;-72
2024/02/20 09:06:32;;;;;;;17.50;13.13;;;;;;;7.87;100.00;139733.09;5030821;28;20449;-70
2024/02/20 09:08:57;;;;;;;18.88;14.52;;;;;;;7.60;100.00;139580.16;5030641;28;20084;-70
2024/02/20 09:11:22;;;;;;;19.52;14.77;;;;;;;8.15;100.00;139614.69;5030703;28;20029;-69
2024/02/20 09:13:48;;;;;;;22.17;16.02;;;;;;;8.42;100.00;139546.06;5029734;28;20113;-69
2024/02/20 09:16:14;;;;;;;17.90;14.18;;;;;;;8.26;100.00;139408.69;5030064;28;20116;-72
2024/02/20 09:18:39;;;;;;;20.98;16.15;;;;;;;7.94;100.00;139182.72;5030365;28;21159;-71
2024/02/20 09:21:08;;;;;;;23.85;18.88;;;;;;;7.83;100.00;138982.97;5029631;28;20029;-69
2024/02/20 09:23:37;;;;;;;21.27;15.32;;;;;;;7.02;100.00;138462.84;5029301;28;20412;-69
2024/02/20 09:26:04;;;;;;;21.52;15.80;;;;;;;7.79;100.00;138450.34;5029601;28;20145;-69
2024/02/20 09:28:29;;;;;;;24.65;17.40;;;;;;;8.20;100.00;138426.81;5028816;28;20301;-70
2024/02/20 09:30:55;;;;;;;25.92;17.45;;;;;;;7.39;100.00;137958.47;5028051;28;20497;-70
2024/02/20 09:33:20;;;;;;;21.40;16.30;;;;;;;8.39;100.00;137952.69;5030071;28;20029;-71
2024/02/20 09:35:46;;;;;;;20.30;15.50;;;;;;;8.35;100.00;137651.56;5030389;28;20083;-70
2024/02/20 09:38:12;;;;;;;20.02;14.90;;;;;;;8.15;100.00;137214.94;5030115;28;20037;-70
2024/02/20 09:40:38;;;;;;;19.77;14.57;;;;;;;7.70;100.00;136809.53;5030187;28;20030;-70
2024/02/20 09:43:04;;;;;;;20.27;15.43;;;;;;;7.52;100.00;136599.47;5029352;28;20417;-70
2024/02/20 09:45:32;;;;;;;20.85;15.65;;;;;;;7.95;100.00;136387.59;5029775;28;20506;-70
2024/02/20 09:47:58;;;;;;;19.10;15.38;;;;;;;8.20;100.00;136223.44;5029962;28;20021;-70
2024/02/20 09:50:25;;;;;;;24.95;15.85;;;;;;;7.83;100.00;135683.75;5039201;28;20506;-70
2024/02/20 09:52:53;;;;;;;21.67;13.93;;;;;;;8.38;100.00;135296.34;5027829;28;20025;-70
2024/02/20 09:55:19;;;;;;;21.98;13.52;;;;;;;8.22;100.00;135114.22;5029342;28;20042;-68
2024/02/20 09:57:48;;;;;;;20.80;14.43;;;;;;;8.54;100.00;134756.97;5029514;28;20746;-67
2024/02/20 10:00:13;;;;;;;21.40;15.75;;;;;;;8.55;100.00;134014.75;5026901;28;20033;-67
2024/02/20 10:02:42;;;;;;;22.67;17.45;;;;;;;8.47;100.00;133532.38;5029430;28;20419;-68
2024/02/20 10:05:12;;;;;;;26.10;17.98;;;;;;;8.85;100.00;133408.03;5027774;28;20034;-70
2024/02/20 10:07:40;;;;;;;32.80;20.70;;;;;;;8.45;100.00;132549.97;5028579;28;20155;-70
2024/02/20 10:10:09;;;;;;;22.35;16.45;;;;;;;8.97;100.00;132238.38;5028802;28;20514;-70
2024/02/20 10:12:36;;;;;;;22.38;16.13;;;;;;;8.90;100.00;131810.97;5028796;28;20087;-71
2024/02/20 10:15:13;;;;;;;20.70;15.23;;;;;;;8.54;100.00;131271.22;5029531;28;20029;-73
2024/02/20 10:17:39;;;;;;;29.80;21.98;;;;;;;8.49;100.00;130936.75;5028516;28;20037;-70
2024/02/20 10:20:12;;;;;;;20.93;15.41;;;;;;;8.80;100.00;130672.81;4954641;28;10000912;-72
2024/02/20 10:22:39;;;;;;;21.48;16.75;;;;;;;8.69;100.00;130313.47;5026649;28;20281;-70
2024/02/20 10:25:08;;;;;;;18.25;14.82;;;;;;;8.56;100.00;129687.13;5026836;28;20034;-70
2024/02/20 10:27:35;;;;;;;19.08;15.10;;;;;;;8.77;100.00;127973.66;5026740;28;20415;-71
2024/02/20 10:30:05;;;;;;;17.58;14.05;;;;;;;8.31;100.00;126890.84;5025552;28;20029;-71
2024/02/20 10:32:36;;;;;;;15.48;12.15;;;;;;;8.95;100.00;126545.72;5025009;28;20033;-69
2024/02/20 10:35:03;;;;;;;20.95;16.48;;;;;;;8.66;100.00;125996.59;5027177;28;20480;-70
2024/02/20 10:37:29;;;;;;;25.42;21.27;;;;;;;8.86;100.00;125705.81;5027996;28;20616;-69
2024/02/20 10:40:11;;;;;;;20.02;15.95;;;;;;;9.28;100.00;124961.38;5024800;28;20033;-70
2024/02/20 10:42:38;;;;;;;16.27;13.75;;;;;;;9.82;100.00;125210.00;5040602;28;20400;-69
2024/02/20 10:45:09;;;;;;;18.13;14.02;;;;;;;9.46;100.00;124220.81;5026233;28;20061;-68
2024/02/20 10:47:42;;;;;;;17.52;14.30;;;;;;;9.66;100.00;121700.38;5041791;28;20436;-68
2024/02/20 10:50:09;;;;;;;15.23;11.82;;;;;;;9.68;100.00;120911.28;5040873;28;20064;-69
2024/02/20 10:52:38;;;;;;;17.98;11.93;;;;;;;10.14;100.00;120064.13;5040443;28;20079;-69
2024/02/20 10:55:10;;;;;;;15.43;12.73;;;;;;;10.33;100.00;119265.72;5027894;28;20048;-69
2024/02/20 10:57:36;;;;;;;19.67;13.07;;;;;;;9.63;100.00;117916.78;5027419;28;20480;-69
2024/02/20 11:00:10;;;;;;;15.68;12.65;;;;;;;9.74;100.00;114624.03;5027101;28;20038;-72
2024/02/20 11:02:42;;;;;;;20.42;13.30;;;;;;;8.69;100.00;113116.22;5027680;28;20071;-68
2024/02/20 11:05:12;;;;;;;16.33;10.75;;;;;;;10.06;100.00;112897.91;5028491;28;20029;-71